sensor_id;sensor_type;location;lat;lon;timestamp;noise_LAeq;noise_LA_min;noise_LA_max;noise_LA01;noise_LA95
74496;Laerm;62979;55.720;37.606;2023-07-13T00:02:15;47.79;43.25;57.33;;
74496;Laerm;62979;55.720;37.606;2023-07-13T00:04:42;48.12;44.02;56.96;;
74496;Laerm;62979;55.720;37.606;2023-07-13T00:07:09;49.44;44.93;58.22;;
74496;Laerm;62979;55.720;37.606;2023-07-13T00:09:36;48.89;44.59;66.21;;
74496;Laerm;62979;55.720;37.606;2023-07-13T00:12:19;48.08;43.12;57.15;;
74496;Laerm;62979;55.720;37.606;2023-07-13T00:14:47;47.02;43.39;54.42;;
74496;Laerm;62979;55.720;37.606;2023-07-13T00:17:14;47.32;42.52;54.32;;
74496;Laerm;62979;55.720;37.606;2023-07-13T00:19:41;46.72;42.82;54.08;;
74496;Laerm;62979;55.720;37.606;2023-07-13T00:22:08;48.66;42.40;58.23;;
74496;Laerm;62979;55.720;37.606;2023-07-13T00:24:35;47.18;42.86;54.17;;
74496;Laerm;62979;55.720;37.606;2023-07-13T00:27:08;49.31;44.17;69.42;;
74496;Laerm;62979;55.720;37.606;2023-07-13T00:29:35;47.56;43.43;61.15;;
74496;Laerm;62979;55.720;37.606;2023-07-13T00:32:03;48.50;43.34;66.61;;
74496;Laerm;62979;55.720;37.606;2023-07-13T00:34:30;47.95;41.70;62.08;;
74496;Laerm;62979;55.720;37.606;2023-07-13T00:36:57;47.97;43.43;62.11;;
74496;Laerm;62979;55.720;37.606;2023-07-13T00:39:24;47.80;43.78;60.44;;
74496;Laerm;62979;55.720;37.606;2023-07-13T00:41:52;48.17;42.89;56.89;;
74496;Laerm;62979;55.720;37.606;2023-07-13T00:44:21;47.88;43.71;55.42;;
74496;Laerm;62979;55.720;37.606;2023-07-13T00:46:49;47.82;44.15;55.56;;
74496;Laerm;62979;55.720;37.606;2023-07-13T00:49:20;47.13;43.27;51.46;;
74496;Laerm;62979;55.720;37.606;2023-07-13T00:51:53;48.45;43.20;60.93;;
74496;Laerm;62979;55.720;37.606;2023-07-13T00:54:40;49.03;44.02;67.49;;
74496;Laerm;62979;55.720;37.606;2023-07-13T00:57:16;48.31;43.72;68.01;;
74496;Laerm;62979;55.720;37.606;2023-07-13T00:59:52;45.83;41.37;58.10;;
74496;Laerm;62979;55.720;37.606;2023-07-13T01:02:19;46.54;41.50;61.02;;
74496;Laerm;62979;55.720;37.606;2023-07-13T01:04:48;47.79;42.28;57.66;;
74496;Laerm;62979;55.720;37.606;2023-07-13T01:07:15;48.55;42.20;64.66;;
74496;Laerm;62979;55.720;37.606;2023-07-13T01:09:43;46.37;42.37;54.89;;
74496;Laerm;62979;55.720;37.606;2023-07-13T01:12:10;50.27;42.84;71.18;;
74496;Laerm;62979;55.720;37.606;2023-07-13T01:14:37;49.01;42.97;63.14;;
74496;Laerm;62979;55.720;37.606;2023-07-13T01:17:05;48.64;42.78;62.07;;
74496;Laerm;62979;55.720;37.606;2023-07-13T01:19:38;48.53;42.29;61.60;;
74496;Laerm;62979;55.720;37.606;2023-07-13T01:22:10;48.35;43.69;66.42;;
74496;Laerm;62979;55.720;37.606;2023-07-13T01:24:39;47.26;43.56;65.38;;
74496;Laerm;62979;55.720;37.606;2023-07-13T01:27:08;46.66;42.17;52.71;;
74496;Laerm;62979;55.720;37.606;2023-07-13T01:29:38;46.53;42.28;57.32;;
74496;Laerm;62979;55.720;37.606;2023-07-13T01:32:08;46.57;42.47;58.41;;
74496;Laerm;62979;55.720;37.606;2023-07-13T01:34:36;48.04;42.75;62.42;;
74496;Laerm;62979;55.720;37.606;2023-07-13T01:37:04;49.15;42.66;58.83;;
74496;Laerm;62979;55.720;37.606;2023-07-13T01:39:32;47.76;43.33;62.29;;
74496;Laerm;62979;55.720;37.606;2023-07-13T01:41:59;48.04;42.93;65.98;;
74496;Laerm;62979;55.720;37.606;2023-07-13T01:44:26;50.10;43.93;62.47;;
74496;Laerm;62979;55.720;37.606;2023-07-13T01:46:53;50.28;43.50;61.07;;
74496;Laerm;62979;55.720;37.606;2023-07-13T01:49:21;46.45;42.39;51.16;;
74496;Laerm;62979;55.720;37.606;2023-07-13T01:51:47;45.78;42.41;52.75;;
74496;Laerm;62979;55.720;37.606;2023-07-13T01:54:14;48.35;43.68;60.13;;
74496;Laerm;62979;55.720;37.606;2023-07-13T01:56:43;46.52;42.05;53.86;;
74496;Laerm;62979;55.720;37.606;2023-07-13T01:59:10;50.81;41.93;64.53;;
74496;Laerm;62979;55.720;37.606;2023-07-13T02:01:36;46.98;42.26;58.00;;
74496;Laerm;62979;55.720;37.606;2023-07-13T02:04:04;46.27;41.77;55.82;;
74496;Laerm;62979;55.720;37.606;2023-07-13T02:06:31;47.59;43.09;55.96;;
74496;Laerm;62979;55.720;37.606;2023-07-13T02:08:58;48.05;43.14;64.63;;
74496;Laerm;62979;55.720;37.606;2023-07-13T02:11:25;48.31;43.52;61.02;;
74496;Laerm;62979;55.720;37.606;2023-07-13T02:13:59;45.83;41.62;50.75;;
74496;Laerm;62979;55.720;37.606;2023-07-13T02:16:26;46.98;41.77;55.44;;
74496;Laerm;62979;55.720;37.606;2023-07-13T02:18:53;46.02;42.42;53.88;;
74496;Laerm;62979;55.720;37.606;2023-07-13T02:21:21;46.07;42.39;51.04;;
74496;Laerm;62979;55.720;37.606;2023-07-13T02:23:48;45.67;41.88;56.01;;
74496;Laerm;62979;55.720;37.606;2023-07-13T02:26:16;48.47;40.69;58.74;;
74496;Laerm;62979;55.720;37.606;2023-07-13T02:28:43;47.76;42.99;60.08;;
74496;Laerm;62979;55.720;37.606;2023-07-13T02:31:14;47.32;43.14;57.88;;
74496;Laerm;62979;55.720;37.606;2023-07-13T02:33:41;50.11;43.15;61.76;;
74496;Laerm;62979;55.720;37.606;2023-07-13T02:36:09;46.78;43.25;53.83;;
74496;Laerm;62979;55.720;37.606;2023-07-13T02:38:36;48.52;43.69;56.27;;
74496;Laerm;62979;55.720;37.606;2023-07-13T02:41:04;47.78;42.52;52.36;;
74496;Laerm;62979;55.720;37.606;2023-07-13T02:43:31;47.47;43.41;55.73;;
74496;Laerm;62979;55.720;37.606;2023-07-13T02:45:59;47.21;43.62;51.60;;
74496;Laerm;62979;55.720;37.606;2023-07-13T02:48:31;50.39;45.21;60.56;;
74496;Laerm;62979;55.720;37.606;2023-07-13T02:50:57;50.16;43.54;62.65;;
74496;Laerm;62979;55.720;37.606;2023-07-13T02:53:24;51.27;45.29;60.01;;
74496;Laerm;62979;55.720;37.606;2023-07-13T02:55:52;58.10;45.17;68.38;;
74496;Laerm;62979;55.720;37.606;2023-07-13T02:58:19;53.47;43.62;71.13;;
74496;Laerm;62979;55.720;37.606;2023-07-13T03:00:47;48.37;43.49;63.23;;
74496;Laerm;62979;55.720;37.606;2023-07-13T03:03:16;49.81;44.62;60.09;;
74496;Laerm;62979;55.720;37.606;2023-07-13T03:05:45;50.23;45.30;60.72;;
74496;Laerm;62979;55.720;37.606;2023-07-13T03:08:16;55.75;45.11;66.06;;
74496;Laerm;62979;55.720;37.606;2023-07-13T03:10:43;53.09;46.11;62.57;;
74496;Laerm;62979;55.720;37.606;2023-07-13T03:13:10;51.22;45.29;58.89;;
74496;Laerm;62979;55.720;37.606;2023-07-13T03:15:37;52.83;45.99;64.96;;
74496;Laerm;62979;55.720;37.606;2023-07-13T03:18:04;53.51;45.52;62.63;;
74496;Laerm;62979;55.720;37.606;2023-07-13T03:20:33;51.96;46.62;60.03;;
74496;Laerm;62979;55.720;37.606;2023-07-13T03:23:01;51.19;46.32;67.03;;
74496;Laerm;62979;55.720;37.606;2023-07-13T03:25:29;52.75;45.42;66.85;;
74496;Laerm;62979;55.720;37.606;2023-07-13T03:27:56;51.03;46.18;64.86;;
74496;Laerm;62979;55.720;37.606;2023-07-13T03:30:23;51.59;46.30;62.37;;
74496;Laerm;62979;55.720;37.606;2023-07-13T03:32:50;54.69;47.76;63.15;;
74496;Laerm;62979;55.720;37.606;2023-07-13T03:35:17;53.15;47.22;62.20;;
74496;Laerm;62979;55.720;37.606;2023-07-13T03:37:44;50.67;46.80;67.78;;
74496;Laerm;62979;55.720;37.606;2023-07-13T03:40:13;51.87;46.98;64.75;;
74496;Laerm;62979;55.720;37.606;2023-07-13T03:42:40;53.23;47.28;65.90;;
74496;Laerm;62979;55.720;37.606;2023-07-13T03:45:08;50.56;46.47;55.05;;
74496;Laerm;62979;55.720;37.606;2023-07-13T03:47:35;53.77;46.82;69.33;;
74496;Laerm;62979;55.720;37.606;2023-07-13T03:50:03;53.62;47.71;67.60;;
74496;Laerm;62979;55.720;37.606;2023-07-13T03:52:30;54.43;48.21;62.68;;
74496;Laerm;62979;55.720;37.606;2023-07-13T03:54:57;52.41;47.10;60.53;;
74496;Laerm;62979;55.720;37.606;2023-07-13T03:57:26;54.76;48.57;61.68;;
74496;Laerm;62979;55.720;37.606;2023-07-13T03:59:53;53.84;47.71;65.42;;
74496;Laerm;62979;55.720;37.606;2023-07-13T04:02:20;53.77;47.40;60.25;;
74496;Laerm;62979;55.720;37.606;2023-07-13T04:04:47;53.10;48.56;59.52;;
74496;Laerm;62979;55.720;37.606;2023-07-13T04:07:14;54.03;49.59;61.32;;
74496;Laerm;62979;55.720;37.606;2023-07-13T04:09:41;56.97;49.76;67.80;;
74496;Laerm;62979;55.720;37.606;2023-07-13T04:12:08;59.03;50.88;71.02;;
74496;Laerm;62979;55.720;37.606;2023-07-13T04:14:36;61.72;49.01;71.26;;
74496;Laerm;62979;55.720;37.606;2023-07-13T04:17:05;55.22;47.39;68.90;;
74496;Laerm;62979;55.720;37.606;2023-07-13T04:19:31;54.17;49.06;60.90;;
74496;Laerm;62979;55.720;37.606;2023-07-13T04:21:58;56.46;50.60;69.19;;
74496;Laerm;62979;55.720;37.606;2023-07-13T04:24:25;54.99;50.09;62.20;;
74496;Laerm;62979;55.720;37.606;2023-07-13T04:26:52;56.13;50.53;66.34;;
74496;Laerm;62979;55.720;37.606;2023-07-13T04:29:19;56.68;49.34;65.54;;
74496;Laerm;62979;55.720;37.606;2023-07-13T04:31:47;55.97;51.03;63.34;;
74496;Laerm;62979;55.720;37.606;2023-07-13T04:34:14;56.79;50.04;67.89;;
74496;Laerm;62979;55.720;37.606;2023-07-13T04:36:42;53.99;49.43;59.86;;
74496;Laerm;62979;55.720;37.606;2023-07-13T04:39:09;53.79;48.36;59.68;;
74496;Laerm;62979;55.720;37.606;2023-07-13T04:41:36;55.48;50.03;62.72;;
74496;Laerm;62979;55.720;37.606;2023-07-13T04:44:03;56.20;48.29;66.40;;
74496;Laerm;62979;55.720;37.606;2023-07-13T04:46:30;54.15;49.97;61.29;;
74496;Laerm;62979;55.720;37.606;2023-07-13T04:48:58;54.44;47.85;66.60;;
74496;Laerm;62979;55.720;37.606;2023-07-13T04:51:25;56.15;50.70;69.92;;
74496;Laerm;62979;55.720;37.606;2023-07-13T04:53:53;57.02;50.10;65.87;;
74496;Laerm;62979;55.720;37.606;2023-07-13T04:56:20;55.46;50.37;64.47;;
74496;Laerm;62979;55.720;37.606;2023-07-13T04:58:47;57.16;51.65;62.51;;
74496;Laerm;62979;55.720;37.606;2023-07-13T05:01:14;55.67;50.26;67.34;;
74496;Laerm;62979;55.720;37.606;2023-07-13T05:03:41;56.59;51.56;62.49;;
74496;Laerm;62979;55.720;37.606;2023-07-13T05:06:09;56.71;49.75;65.28;;
74496;Laerm;62979;55.720;37.606;2023-07-13T05:08:36;56.20;49.27;62.05;;
74496;Laerm;62979;55.720;37.606;2023-07-13T05:11:05;57.55;52.11;68.35;;
74496;Laerm;62979;55.720;37.606;2023-07-13T05:13:33;57.92;51.79;70.78;;
74496;Laerm;62979;55.720;37.606;2023-07-13T05:16:03;55.23;50.48;63.23;;
74496;Laerm;62979;55.720;37.606;2023-07-13T05:18:31;56.24;52.44;61.92;;
74496;Laerm;62979;55.720;37.606;2023-07-13T05:21:01;55.30;49.04;62.12;;
74496;Laerm;62979;55.720;37.606;2023-07-13T05:23:30;57.15;51.20;67.05;;
74496;Laerm;62979;55.720;37.606;2023-07-13T05:25:58;61.32;50.93;76.01;;
74496;Laerm;62979;55.720;37.606;2023-07-13T05:28:26;56.72;50.05;64.98;;
74496;Laerm;62979;55.720;37.606;2023-07-13T05:30:54;58.64;51.33;66.59;;
74496;Laerm;62979;55.720;37.606;2023-07-13T05:33:21;59.03;52.69;66.67;;
74496;Laerm;62979;55.720;37.606;2023-07-13T05:35:48;58.63;52.19;64.96;;
74496;Laerm;62979;55.720;37.606;2023-07-13T05:38:15;59.53;53.07;64.92;;
74496;Laerm;62979;55.720;37.606;2023-07-13T05:40:44;59.80;53.03;65.49;;
74496;Laerm;62979;55.720;37.606;2023-07-13T05:43:12;59.34;54.03;69.11;;
74496;Laerm;62979;55.720;37.606;2023-07-13T05:45:41;60.62;54.84;67.07;;
74496;Laerm;62979;55.720;37.606;2023-07-13T05:48:08;63.12;54.46;76.96;;
74496;Laerm;62979;55.720;37.606;2023-07-13T05:50:35;62.93;54.63;70.05;;
74496;Laerm;62979;55.720;37.606;2023-07-13T05:53:02;63.10;56.07;67.16;;
74496;Laerm;62979;55.720;37.606;2023-07-13T05:55:29;58.15;52.54;64.55;;
74496;Laerm;62979;55.720;37.606;2023-07-13T05:57:57;57.76;51.26;63.62;;
74496;Laerm;62979;55.720;37.606;2023-07-13T06:00:24;59.31;53.63;65.15;;
74496;Laerm;62979;55.720;37.606;2023-07-13T06:02:52;61.02;52.63;68.48;;
74496;Laerm;62979;55.720;37.606;2023-07-13T06:05:19;60.48;52.73;69.95;;
74496;Laerm;62979;55.720;37.606;2023-07-13T06:07:46;58.07;49.36;68.30;;
74496;Laerm;62979;55.720;37.606;2023-07-13T06:10:13;59.04;50.56;65.79;;
74496;Laerm;62979;55.720;37.606;2023-07-13T06:12:39;60.96;52.04;66.32;;
74496;Laerm;62979;55.720;37.606;2023-07-13T06:15:10;60.78;50.51;66.76;;
74496;Laerm;62979;55.720;37.606;2023-07-13T06:17:37;66.24;54.25;79.96;;
74496;Laerm;62979;55.720;37.606;2023-07-13T06:20:06;61.57;54.03;67.33;;
74496;Laerm;62979;55.720;37.606;2023-07-13T06:22:33;60.98;53.20;66.71;;
74496;Laerm;62979;55.720;37.606;2023-07-13T06:25:00;62.46;53.29;68.03;;
74496;Laerm;62979;55.720;37.606;2023-07-13T06:27:27;62.02;53.69;71.57;;
74496;Laerm;62979;55.720;37.606;2023-07-13T06:29:54;64.79;53.28;71.16;;
74496;Laerm;62979;55.720;37.606;2023-07-13T06:32:22;66.16;58.03;72.72;;
74496;Laerm;62979;55.720;37.606;2023-07-13T06:34:49;63.77;57.81;70.47;;
74496;Laerm;62979;55.720;37.606;2023-07-13T06:37:17;66.81;62.36;75.77;;
74496;Laerm;62979;55.720;37.606;2023-07-13T06:39:44;63.57;53.53;71.43;;
74496;Laerm;62979;55.720;37.606;2023-07-13T06:42:11;60.29;51.30;71.76;;
74496;Laerm;62979;55.720;37.606;2023-07-13T06:44:38;58.46;50.02;65.97;;
74496;Laerm;62979;55.720;37.606;2023-07-13T06:47:06;64.12;54.66;69.13;;
74496;Laerm;62979;55.720;37.606;2023-07-13T06:49:34;63.32;51.65;69.00;;
74496;Laerm;62979;55.720;37.606;2023-07-13T06:52:03;65.32;58.42;72.01;;
74496;Laerm;62979;55.720;37.606;2023-07-13T06:54:30;64.80;55.97;72.90;;
74496;Laerm;62979;55.720;37.606;2023-07-13T06:56:57;62.03;52.33;70.71;;
74496;Laerm;62979;55.720;37.606;2023-07-13T06:59:23;63.80;54.74;78.56;;
74496;Laerm;62979;55.720;37.606;2023-07-13T07:01:50;65.45;58.14;70.94;;
74496;Laerm;62979;55.720;37.606;2023-07-13T07:04:17;65.36;54.61;70.86;;
74496;Laerm;62979;55.720;37.606;2023-07-13T07:06:45;65.21;55.70;76.69;;
74496;Laerm;62979;55.720;37.606;2023-07-13T07:09:12;64.17;52.44;71.70;;
74496;Laerm;62979;55.720;37.606;2023-07-13T07:11:39;65.93;53.60;70.38;;
74496;Laerm;62979;55.720;37.606;2023-07-13T07:14:07;61.00;52.97;72.87;;
74496;Laerm;62979;55.720;37.606;2023-07-13T07:16:34;60.33;53.85;67.77;;
74496;Laerm;62979;55.720;37.606;2023-07-13T07:19:01;62.88;55.18;69.44;;
74496;Laerm;62979;55.720;37.606;2023-07-13T07:21:28;65.31;52.93;81.17;;
74496;Laerm;62979;55.720;37.606;2023-07-13T07:23:56;58.65;53.38;66.82;;
74496;Laerm;62979;55.720;37.606;2023-07-13T07:26:25;57.53;48.96;66.01;;
74496;Laerm;62979;55.720;37.606;2023-07-13T07:28:52;57.27;51.21;68.44;;
74496;Laerm;62979;55.720;37.606;2023-07-13T07:31:19;56.40;50.09;70.65;;
74496;Laerm;62979;55.720;37.606;2023-07-13T07:33:46;57.85;52.86;68.08;;
74496;Laerm;62979;55.720;37.606;2023-07-13T07:36:15;59.12;53.31;79.05;;
74496;Laerm;62979;55.720;37.606;2023-07-13T07:38:42;57.61;53.44;66.13;;
74496;Laerm;62979;55.720;37.606;2023-07-13T07:41:11;57.43;51.91;69.72;;
74496;Laerm;62979;55.720;37.606;2023-07-13T07:43:38;57.97;53.03;65.20;;
74496;Laerm;62979;55.720;37.606;2023-07-13T07:46:05;59.82;54.46;78.13;;
74496;Laerm;62979;55.720;37.606;2023-07-13T07:48:32;59.64;54.41;64.75;;
74496;Laerm;62979;55.720;37.606;2023-07-13T07:50:59;58.32;54.21;66.92;;
74496;Laerm;62979;55.720;37.606;2023-07-13T07:53:26;61.10;54.30;71.60;;
74496;Laerm;62979;55.720;37.606;2023-07-13T07:55:53;58.33;53.21;75.60;;
74496;Laerm;62979;55.720;37.606;2023-07-13T07:58:21;58.28;51.87;74.05;;
74496;Laerm;62979;55.720;37.606;2023-07-13T08:00:48;59.28;53.91;66.29;;
74496;Laerm;62979;55.720;37.606;2023-07-13T08:03:15;58.48;53.59;63.86;;
74496;Laerm;62979;55.720;37.606;2023-07-13T08:05:42;58.11;51.96;69.21;;
74496;Laerm;62979;55.720;37.606;2023-07-13T08:08:09;58.72;52.85;70.56;;
74496;Laerm;62979;55.720;37.606;2023-07-13T08:10:36;58.89;54.08;70.02;;
74496;Laerm;62979;55.720;37.606;2023-07-13T08:13:03;59.70;53.55;80.06;;
74496;Laerm;62979;55.720;37.606;2023-07-13T08:15:32;57.75;53.29;76.21;;
74496;Laerm;62979;55.720;37.606;2023-07-13T08:17:58;59.14;53.54;65.90;;
74496;Laerm;62979;55.720;37.606;2023-07-13T08:20:25;58.59;54.09;72.15;;
74496;Laerm;62979;55.720;37.606;2023-07-13T08:22:52;58.94;53.64;74.79;;
74496;Laerm;62979;55.720;37.606;2023-07-13T08:25:19;59.26;53.79;71.14;;
74496;Laerm;62979;55.720;37.606;2023-07-13T08:27:47;58.48;54.14;69.55;;
74496;Laerm;62979;55.720;37.606;2023-07-13T08:30:14;58.59;52.53;71.83;;
74496;Laerm;62979;55.720;37.606;2023-07-13T08:32:42;59.72;52.94;73.67;;
74496;Laerm;62979;55.720;37.606;2023-07-13T08:35:09;59.46;54.64;69.74;;
74496;Laerm;62979;55.720;37.606;2023-07-13T08:37:36;58.36;53.23;75.73;;
74496;Laerm;62979;55.720;37.606;2023-07-13T08:40:05;59.53;53.84;71.59;;
74496;Laerm;62979;55.720;37.606;2023-07-13T08:42:37;59.54;53.59;76.30;;
74496;Laerm;62979;55.720;37.606;2023-07-13T08:45:18;58.35;53.46;73.44;;
74496;Laerm;62979;55.720;37.606;2023-07-13T08:47:53;59.62;53.92;68.69;;
74496;Laerm;62979;55.720;37.606;2023-07-13T08:50:30;57.79;52.20;70.20;;
74496;Laerm;62979;55.720;37.606;2023-07-13T08:52:59;56.66;51.10;64.59;;
74496;Laerm;62979;55.720;37.606;2023-07-13T08:55:31;57.86;53.72;72.55;;
74496;Laerm;62979;55.720;37.606;2023-07-13T08:58:09;58.00;53.05;73.36;;
74496;Laerm;62979;55.720;37.606;2023-07-13T09:00:46;59.49;54.87;70.28;;
74496;Laerm;62979;55.720;37.606;2023-07-13T09:03:23;59.80;52.96;70.44;;
74496;Laerm;62979;55.720;37.606;2023-07-13T09:05:56;59.25;54.99;70.03;;
74496;Laerm;62979;55.720;37.606;2023-07-13T09:08:42;62.57;55.01;82.73;;
74496;Laerm;62979;55.720;37.606;2023-07-13T09:11:29;62.27;56.97;76.87;;
74496;Laerm;62979;55.720;37.606;2023-07-13T09:14:13;60.71;56.60;73.79;;
74496;Laerm;62979;55.720;37.606;2023-07-13T09:16:48;61.57;55.22;75.70;;
74496;Laerm;62979;55.720;37.606;2023-07-13T09:19:25;61.79;54.05;76.67;;
74496;Laerm;62979;55.720;37.606;2023-07-13T09:21:55;61.67;54.48;83.52;;
74496;Laerm;62979;55.720;37.606;2023-07-13T09:24:36;59.82;53.91;79.69;;
74496;Laerm;62979;55.720;37.606;2023-07-13T09:27:15;60.55;54.07;81.60;;
74496;Laerm;62979;55.720;37.606;2023-07-13T09:29:52;60.58;53.81;80.91;;
74496;Laerm;62979;55.720;37.606;2023-07-13T09:32:24;58.87;53.34;78.89;;
74496;Laerm;62979;55.720;37.606;2023-07-13T09:34:54;60.55;54.14;72.03;;
74496;Laerm;62979;55.720;37.606;2023-07-13T09:37:28;61.65;55.15;87.33;;
74496;Laerm;62979;55.720;37.606;2023-07-13T09:39:59;61.63;54.86;88.32;;
74496;Laerm;62979;55.720;37.606;2023-07-13T09:42:32;60.02;54.96;71.70;;
74496;Laerm;62979;55.720;37.606;2023-07-13T09:45:02;60.96;54.59;83.17;;
74496;Laerm;62979;55.720;37.606;2023-07-13T09:47:32;60.96;54.54;75.07;;
74496;Laerm;62979;55.720;37.606;2023-07-13T09:50:03;59.72;54.51;78.10;;
74496;Laerm;62979;55.720;37.606;2023-07-13T09:52:42;60.60;54.50;80.42;;
74496;Laerm;62979;55.720;37.606;2023-07-13T09:55:26;60.25;54.27;80.16;;
74496;Laerm;62979;55.720;37.606;2023-07-13T09:57:53;58.82;52.80;66.04;;
74496;Laerm;62979;55.720;37.606;2023-07-13T10:00:26;59.52;54.32;74.67;;
74496;Laerm;62979;55.720;37.606;2023-07-13T10:03:05;59.63;54.36;71.87;;
74496;Laerm;62979;55.720;37.606;2023-07-13T10:05:45;58.15;51.97;65.39;;
74496;Laerm;62979;55.720;37.606;2023-07-13T10:08:19;59.31;53.78;73.93;;
74496;Laerm;62979;55.720;37.606;2023-07-13T10:10:54;59.37;53.59;70.43;;
74496;Laerm;62979;55.720;37.606;2023-07-13T10:13:32;61.09;54.88;81.73;;
74496;Laerm;62979;55.720;37.606;2023-07-13T10:16:01;59.67;53.92;77.03;;
74496;Laerm;62979;55.720;37.606;2023-07-13T10:18:39;61.01;54.17;72.38;;
74496;Laerm;62979;55.720;37.606;2023-07-13T10:21:17;60.99;55.89;81.71;;
74496;Laerm;62979;55.720;37.606;2023-07-13T10:23:51;60.31;54.37;72.07;;
74496;Laerm;62979;55.720;37.606;2023-07-13T10:26:24;60.23;53.85;81.59;;
74496;Laerm;62979;55.720;37.606;2023-07-13T10:28:57;62.91;54.98;86.16;;
74496;Laerm;62979;55.720;37.606;2023-07-13T10:31:26;61.17;55.79;77.45;;
74496;Laerm;62979;55.720;37.606;2023-07-13T10:33:53;61.67;55.37;89.98;;
74496;Laerm;62979;55.720;37.606;2023-07-13T10:36:31;60.87;56.37;82.25;;
74496;Laerm;62979;55.720;37.606;2023-07-13T10:39:04;61.60;56.41;81.52;;
74496;Laerm;62979;55.720;37.606;2023-07-13T10:41:39;61.34;56.04;82.31;;
74496;Laerm;62979;55.720;37.606;2023-07-13T10:44:36;62.78;57.19;85.50;;
74496;Laerm;62979;55.720;37.606;2023-07-13T10:47:08;61.54;57.07;80.53;;
74496;Laerm;62979;55.720;37.606;2023-07-13T10:49:42;63.55;56.09;89.54;;
74496;Laerm;62979;55.720;37.606;2023-07-13T10:52:46;63.56;58.36;89.56;;
74496;Laerm;62979;55.720;37.606;2023-07-13T10:55:34;63.28;57.53;86.80;;
74496;Laerm;62979;55.720;37.606;2023-07-13T10:58:11;63.75;59.12;87.54;;
74496;Laerm;62979;55.720;37.606;2023-07-13T11:00:48;63.83;57.32;80.22;;
74496;Laerm;62979;55.720;37.606;2023-07-13T11:03:20;63.53;57.76;78.07;;
74496;Laerm;62979;55.720;37.606;2023-07-13T11:05:51;65.49;57.44;85.57;;
74496;Laerm;62979;55.720;37.606;2023-07-13T11:08:35;63.96;58.06;87.37;;
74496;Laerm;62979;55.720;37.606;2023-07-13T11:11:36;62.37;56.08;85.89;;
74496;Laerm;62979;55.720;37.606;2023-07-13T11:14:26;63.13;57.13;84.16;;
74496;Laerm;62979;55.720;37.606;2023-07-13T11:16:53;62.86;56.92;80.14;;
74496;Laerm;62979;55.720;37.606;2023-07-13T11:19:50;62.79;58.42;82.83;;
74496;Laerm;62979;55.720;37.606;2023-07-13T11:22:25;62.44;56.28;86.22;;
74496;Laerm;62979;55.720;37.606;2023-07-13T11:25:27;61.78;56.63;78.15;;
74496;Laerm;62979;55.720;37.606;2023-07-13T11:28:21;62.73;56.11;81.59;;
74496;Laerm;62979;55.720;37.606;2023-07-13T11:31:01;61.48;56.64;76.27;;
74496;Laerm;62979;55.720;37.606;2023-07-13T11:33:31;60.18;55.72;79.02;;
74496;Laerm;62979;55.720;37.606;2023-07-13T11:36:15;60.85;55.53;86.83;;
74496;Laerm;62979;55.720;37.606;2023-07-13T11:38:45;61.01;55.74;73.94;;
74496;Laerm;62979;55.720;37.606;2023-07-13T11:41:17;61.43;55.86;79.69;;
74496;Laerm;62979;55.720;37.606;2023-07-13T11:43:49;59.58;55.48;74.00;;
74496;Laerm;62979;55.720;37.606;2023-07-13T11:46:22;61.22;55.52;88.25;;
74496;Laerm;62979;55.720;37.606;2023-07-13T11:48:50;61.94;55.64;85.62;;
74496;Laerm;62979;55.720;37.606;2023-07-13T11:51:23;61.88;56.01;79.57;;
74496;Laerm;62979;55.720;37.606;2023-07-13T11:53:54;61.28;55.36;86.07;;
74496;Laerm;62979;55.720;37.606;2023-07-13T11:56:24;61.38;56.60;81.93;;
74496;Laerm;62979;55.720;37.606;2023-07-13T11:58:56;62.22;56.90;75.55;;
74496;Laerm;62979;55.720;37.606;2023-07-13T12:01:28;62.42;56.96;82.99;;
74496;Laerm;62979;55.720;37.606;2023-07-13T12:04:01;63.34;57.27;92.38;;
74496;Laerm;62979;55.720;37.606;2023-07-13T12:06:31;61.51;57.17;74.81;;
74496;Laerm;62979;55.720;37.606;2023-07-13T12:09:00;62.34;56.96;84.33;;
74496;Laerm;62979;55.720;37.606;2023-07-13T12:11:30;62.92;57.07;79.92;;
74496;Laerm;62979;55.720;37.606;2023-07-13T12:13:59;65.50;56.59;82.33;;
74496;Laerm;62979;55.720;37.606;2023-07-13T12:16:30;62.95;57.53;86.58;;
74496;Laerm;62979;55.720;37.606;2023-07-13T12:19:00;62.68;56.59;85.67;;
74496;Laerm;62979;55.720;37.606;2023-07-13T12:21:32;61.85;56.46;78.52;;
74496;Laerm;62979;55.720;37.606;2023-07-13T12:24:01;62.76;57.41;71.53;;
74496;Laerm;62979;55.720;37.606;2023-07-13T12:26:30;63.07;57.24;81.10;;
74496;Laerm;62979;55.720;37.606;2023-07-13T12:29:05;62.63;57.13;84.28;;
74496;Laerm;62979;55.720;37.606;2023-07-13T12:31:36;62.00;56.20;85.04;;
74496;Laerm;62979;55.720;37.606;2023-07-13T12:34:09;64.25;58.18;83.36;;
74496;Laerm;62979;55.720;37.606;2023-07-13T12:36:41;64.60;58.65;87.57;;
74496;Laerm;62979;55.720;37.606;2023-07-13T12:39:17;63.84;57.98;79.32;;
74496;Laerm;62979;55.720;37.606;2023-07-13T12:41:45;64.90;57.88;86.10;;
74496;Laerm;62979;55.720;37.606;2023-07-13T12:44:16;63.31;58.66;83.38;;
74496;Laerm;62979;55.720;37.606;2023-07-13T12:47:06;63.03;57.14;87.03;;
74496;Laerm;62979;55.720;37.606;2023-07-13T12:49:42;63.83;58.50;85.48;;
74496;Laerm;62979;55.720;37.606;2023-07-13T12:52:16;62.72;57.58;89.12;;
74496;Laerm;62979;55.720;37.606;2023-07-13T12:54:53;62.65;56.59;80.67;;
74496;Laerm;62979;55.720;37.606;2023-07-13T12:57:23;60.89;55.86;69.10;;
74496;Laerm;62979;55.720;37.606;2023-07-13T12:59:54;60.79;55.70;69.60;;
74496;Laerm;62979;55.720;37.606;2023-07-13T13:02:29;60.70;55.83;84.36;;
74496;Laerm;62979;55.720;37.606;2023-07-13T13:04:58;61.78;56.74;88.21;;
74496;Laerm;62979;55.720;37.606;2023-07-13T13:07:26;62.90;57.65;69.51;;
74496;Laerm;62979;55.720;37.606;2023-07-13T13:09:53;61.67;55.52;80.38;;
74496;Laerm;62979;55.720;37.606;2023-07-13T13:12:22;65.98;55.91;82.65;;
74496;Laerm;62979;55.720;37.606;2023-07-13T13:14:53;62.11;55.87;72.76;;
74496;Laerm;62979;55.720;37.606;2023-07-13T13:17:24;62.96;57.21;78.38;;
74496;Laerm;62979;55.720;37.606;2023-07-13T13:19:53;63.07;57.45;90.28;;
74496;Laerm;62979;55.720;37.606;2023-07-13T13:22:20;63.15;58.37;76.89;;
74496;Laerm;62979;55.720;37.606;2023-07-13T13:24:47;61.80;56.58;85.99;;
74496;Laerm;62979;55.720;37.606;2023-07-13T13:27:19;60.82;55.38;88.72;;
74496;Laerm;62979;55.720;37.606;2023-07-13T13:29:50;64.22;54.08;93.42;;
74496;Laerm;62979;55.720;37.606;2023-07-13T13:32:20;61.01;54.11;81.58;;
74496;Laerm;62979;55.720;37.606;2023-07-13T13:34:47;62.73;57.25;79.39;;
74496;Laerm;62979;55.720;37.606;2023-07-13T13:37:20;62.86;56.49;88.42;;
74496;Laerm;62979;55.720;37.606;2023-07-13T13:39:48;62.44;56.96;83.23;;
74496;Laerm;62979;55.720;37.606;2023-07-13T13:42:16;64.15;58.18;81.58;;
74496;Laerm;62979;55.720;37.606;2023-07-13T13:44:43;64.90;57.24;85.51;;
74496;Laerm;62979;55.720;37.606;2023-07-13T13:47:29;63.55;57.49;88.11;;
74496;Laerm;62979;55.720;37.606;2023-07-13T13:49:57;63.27;57.47;79.33;;